Latest Weather Observations for Hobart Airport

IDT60901

Issued at 7:35 am EDT Friday 24 October 2014 (issued every 10 minutes, with the page automatically refreshed every 10 minutes)

About weather observations | Map of Hobart area stations | Latest observations for Hobart area | Other Formats
Station Details ID: 094008 Name: HOBART AIRPORT Lat: -42.83 Lon: 147.50 Height: 4.0 m
Data from the previous 72 hours. | See also: Recent months at Hobart Airport
Date/Time
EDT
Tmp

°C
App
Tmp
°C
Dew
Point
°C
Rel
Hum
%
Delta-T

°C
Wind Press
QNH
hPa
Press
MSL
hPa
Rain
since
9 am
mm
Dir
 
Spd
km/h
Gust
km/h
Spd
kts
Gust
kts
24/07:30am 7.3 2.9 4.8 84 1.1 NW 17 20 9 11 1020.6 1020.6 0.0
24/07:00am 6.3 1.8 4.4 88 0.8 NW 17 20 9 11 1020.7 1020.7 0.0
24/06:30am 5.5 2.4 3.6 87 0.8 NW 9 13 5 7 1020.9 1020.9 0.0
24/05:30am 5.8 1.7 4.1 89 0.7 NW 15 19 8 10 1021.4 1021.4 0.0
24/05:00am 5.7 1.5 4.0 89 0.7 NW 15 17 8 9 1021.5 1021.5 0.0
24/04:30am 5.7 2.3 3.8 87 0.8 NW 11 17 6 9 1021.9 1021.9 0.0
24/04:00am 5.6 3.0 4.2 91 0.6 NW 7 11 4 6 1022.1 1022.1 0.0
24/03:30am 6.5 3.6 4.4 86 0.9 NNW 9 13 5 7 1022.9 1022.9 0.0
24/03:00am 6.9 3.3 4.8 86 0.9 NW 13 15 7 8 1023.3 1023.3 0.0
24/02:30am 6.1 2.6 3.7 84 1.0 WNW 11 13 6 7 1023.5 1023.5 0.0
24/02:00am 7.3 4.0 4.8 84 1.1 N 11 13 6 7 1023.9 1023.9 0.0
24/01:30am 8.0 4.8 5.3 83 1.2 NNW 11 13 6 7 1024.3 1024.3 0.0
24/01:00am 8.0 4.9 3.5 73 1.9 N 9 11 5 6 1024.8 1024.8 0.0
24/12:30am 7.9 4.4 3.7 75 1.8 N 11 13 6 7 1024.8 1024.8 0.0
24/12:00am 9.5 6.0 3.5 66 2.6 N 11 13 6 7 1025.2 1025.2 0.0
 
Date/Time
EDT
Tmp

°C
App
Tmp
°C
Dew
Point
°C
Rel
Hum
%
Delta-T

°C
Wind Press
QNH
hPa
Press
MSL
hPa
Rain
since
9 am
mm
Dir
 
Spd
km/h
Gust
km/h
Spd
kts
Gust
kts
23/11:30pm 9.3 5.9 3.8 68 2.4 N 11 15 6 8 1025.4 1025.4 0.0
23/11:00pm 10.1 6.3 3.7 64 2.8 N 13 17 7 9 1025.6 1025.6 0.0
23/10:30pm 10.1 5.0 4.2 67 2.6 NE 20 28 11 15 1025.2 1025.2 0.0
23/10:00pm 10.7 5.6 4.2 64 2.9 NE 20 30 11 16 1025.5 1025.5 0.0
23/09:30pm 10.7 5.7 4.4 65 2.8 NE 20 28 11 15 1025.8 1025.8 0.0
23/09:00pm 10.7 6.2 4.4 65 2.8 NE 17 26 9 14 1026.0 1026.0 0.0
23/08:30pm 11.1 6.0 4.1 62 3.1 NE 20 28 11 15 1026.0 1026.0 0.0
23/08:00pm 11.1 7.0 4.1 62 3.1 E 15 20 8 11 1025.8 1025.8 0.0
23/07:30pm 11.6 7.4 3.9 59 3.4 E 15 24 8 13 1025.7 1025.7 0.0
23/07:00pm 12.3 7.8 4.0 57 3.7 E 17 26 9 14 1025.3 1025.3 0.0
23/06:30pm 13.2 8.6 3.9 53 4.2 ESE 17 24 9 13 1025.1 1025.1 0.0
23/06:00pm 13.5 9.3 3.7 51 4.4 ESE 15 26 8 14 1025.0 1025.0 0.0
23/05:30pm 14.2 9.6 3.5 48 4.8 ESE 17 28 9 15 1024.9 1024.9 0.0
23/05:00pm 14.8 9.8 3.5 46 5.1 SE 19 28 10 15 1024.8 1024.8 0.0
23/04:30pm 14.8 9.4 4.7 51 4.7 SSE 22 30 12 16 1024.8 1024.8 0.0
23/04:00pm 13.8 7.6 4.4 53 4.3 SSE 26 32 14 17 1024.9 1024.9 0.0
23/03:30pm 14.5 9.1 4.3 50 4.7 SSE 22 30 12 16 1024.9 1024.9 0.0
23/03:00pm 14.6 9.3 3.2 46 5.1 SSE 20 28 11 15 1025.0 1025.0 0.0
23/02:30pm 14.5 9.3 3.4 47 5.0 SSE 20 26 11 14 1025.3 1025.3 0.0
23/02:00pm 14.8 9.5 2.9 44 5.3 SSE 20 32 11 17 1025.4 1025.4 0.0
23/01:30pm 14.9 9.3 3.7 47 5.1 S 22 30 12 16 1025.4 1025.4 0.0
23/01:00pm 14.9 9.2 2.8 44 5.4 S 22 28 12 15 1025.5 1025.5 0.0
23/12:30pm 14.0 8.8 2.7 46 5.0 S 19 28 10 15 1025.8 1025.8 0.0
23/12:00pm 13.8 9.1 3.0 48 4.8 S 17 24 9 13 1026.2 1026.2 0.0
23/11:30am 13.8 9.0 2.4 46 5.0 S 17 22 9 12 1026.4 1026.4 0.0
23/11:00am 13.2 8.5 3.0 50 4.5 S 17 26 9 14 1026.7 1026.7 0.0
23/10:30am 12.8 7.7 3.0 51 4.3 S 19 28 10 15 1026.6 1026.6 0.0
23/10:00am 12.6 8.2 2.7 51 4.3 SSE 15 24 8 13 1026.6 1026.6 0.0
23/09:30am 12.4 7.2 2.5 51 4.3 SSE 19 26 10 14 1026.4 1026.4 0.0
23/09:00am 11.8 5.9 1.9 50 4.2 S 22 30 12 16 1026.3 1026.3 0.0
23/08:30am 12.0 6.0 3.4 55 3.8 SSE 24 35 13 19 1026.0 1026.0 0.0
23/08:00am 11.7 7.0 3.0 55 3.8 S 17 26 9 14 1025.6 1025.6 0.0
23/07:30am 11.4 6.0 2.6 54 3.8 SSW 20 28 11 15 1025.2 1025.2 0.0
23/07:00am 11.3 5.2 3.0 56 3.6 S 24 33 13 18 1024.7 1024.7 0.0
23/06:30am 11.1 5.0 2.7 56 3.6 S 24 35 13 19 1024.1 1024.1 0.0
23/06:00am 11.2 5.2 3.2 58 3.5 S 24 32 13 17 1023.7 1023.7 0.0
23/05:30am 11.3 6.1 3.3 58 3.5 S 20 33 11 18 1023.2 1023.2 0.0
23/05:00am 11.1 4.7 3.3 58 3.4 S 26 33 14 18 1022.8 1022.8 0.0
23/04:30am 11.5 5.5 3.6 58 3.5 S 24 30 13 16 1022.5 1022.5 0.0
23/04:00am 11.7 5.1 4.4 61 3.3 S 28 37 15 20 1022.1 1022.1 0.0
23/03:30am 11.6 4.4 4.8 63 3.1 S 32 43 17 23 1022.2 1022.2 0.0
23/03:00am 11.8 5.5 5.5 65 2.9 S 28 39 15 21 1022.0 1022.0 0.0
23/02:30am 11.9 5.9 7.1 72 2.3 S 28 37 15 20 1022.0 1022.0 0.0
23/02:00am 12.3 7.1 8.9 80 1.7 S 26 39 14 21 1021.8 1021.8 0.0
23/01:30am 12.8 7.5 9.7 81 1.6 S 28 33 15 18 1021.6 1021.6 0.0
23/01:00am 13.1 8.5 9.6 79 1.8 S 24 35 13 19 1021.5 1021.5 0.0
23/12:43am 13.2 7.5 9.9 80 1.7 S 30 48 16 26 1021.2 1021.2 0.0
23/12:30am 13.5 8.1 9.6 77 2.0 S 28 41 15 22 1020.5 1020.5 0.0
23/12:00am 14.0 7.7 9.1 72 2.5 S 32 41 17 22 1020.3 1020.3 0.0
 
Date/Time
EDT
Tmp

°C
App
Tmp
°C
Dew
Point
°C
Rel
Hum
%
Delta-T

°C
Wind Press
QNH
hPa
Press
MSL
hPa
Rain
since
9 am
mm
Dir
 
Spd
km/h
Gust
km/h
Spd
kts
Gust
kts
22/11:30pm 14.1 8.7 9.4 73 2.4 S 28 46 15 25 1019.9 1019.9 0.0
22/11:00pm 14.3 9.3 9.4 72 2.5 S 26 44 14 24 1019.7 1019.7 0.0
22/10:30pm 14.4 11.3 10.2 76 2.2 SSE 17 26 9 14 1019.3 1019.3 0.0
22/10:00pm 14.9 11.7 11.1 78 2.0 SSE 19 28 10 15 1018.8 1018.8 0.0
22/09:30pm 14.3 12.7 11.5 83 1.5 SE 11 13 6 7 1018.4 1018.4 0.0
22/09:00pm 14.2 12.7 11.8 85 1.3 SSE 11 17 6 9 1018.1 1018.1 0.0
22/08:30pm 14.4 11.0 11.4 82 1.6 S 20 26 11 14 1017.3 1017.3 0.0
22/08:00pm 14.5 9.4 10.7 78 2.0 SSE 28 33 15 18 1016.7 1016.7 0.0
22/07:30pm 15.4 8.5 8.7 64 3.4 S 35 46 19 25 1015.7 1015.7 0.0
22/07:00pm 16.1 9.4 7.2 55 4.4 S 32 44 17 24 1015.1 1015.1 0.0
22/06:47pm 17.5 10.6 6.6 48 5.4 S 32 50 17 27 1014.8 1014.8 0.0
22/06:30pm 18.4 13.2 7.3 48 5.6 S 24 37 13 20 1014.3 1014.3 0.0
22/06:00pm 19.2 15.1 7.7 47 5.9 SSW 19 26 10 14 1013.9 1013.9 0.0
22/05:30pm 19.6 15.4 8.2 47 5.9 S 20 26 11 14 1014.1 1014.1 0.0
22/05:00pm 18.9 15.8 9.0 52 5.2 S 15 19 8 10 1013.7 1013.7 0.0
22/04:30pm 20.2 17.3 9.5 50 5.7 SSE 15 19 8 10 1013.5 1013.5 0.0
22/04:00pm 19.6 15.3 9.2 51 5.5 SSE 22 28 12 15 1013.7 1013.7 0.0
22/03:30pm 22.5 17.5 6.4 35 8.2 SE 22 30 12 16 1013.5 1013.5 0.0
22/03:00pm 23.3 17.7 5.4 31 9.0 SSE 24 28 13 15 1013.6 1013.6 0.0
22/02:30pm 22.7 18.0 5.9 33 8.5 SE 20 28 11 15 1013.8 1013.8 0.0
22/02:00pm 23.2 18.6 6.7 34 8.5 SSE 20 26 11 14 1014.1 1014.1 0.0
22/01:30pm 23.8 19.9 7.1 34 8.7 SSE 17 22 9 12 1014.7 1014.7 0.0
22/01:00pm 23.6 20.2 5.9 32 9.0 NW 13 22 7 12 1015.1 1015.1 0.0
22/12:30pm 23.1 19.2 5.4 31 8.9 NNW 15 24 8 13 1015.7 1015.7 0.0
22/12:00pm 21.9 18.0 5.4 34 8.2 NNW 15 24 8 13 1016.3 1016.3 0.0
22/11:30am 20.2 16.0 5.6 38 7.2 NW 17 26 9 14 1017.0 1017.0 0.0
22/11:00am 19.3 14.8 5.9 41 6.6 NW 19 26 10 14 1017.4 1017.4 0.0
22/10:30am 17.1 12.5 5.5 46 5.6 NW 19 26 10 14 1018.1 1018.1 0.0
22/10:00am 16.2 10.6 5.3 48 5.2 NW 24 30 13 16 1018.8 1018.8 0.0
22/09:30am 14.7 8.7 5.4 53 4.4 NW 26 32 14 17 1019.0 1019.0 0.0
22/09:00am 14.2 9.1 5.8 57 4.0 NNW 22 30 12 16 1019.3 1019.3 0.0
22/08:30am 14.6 10.1 6.0 56 4.1 N 19 24 10 13 1019.7 1019.7 0.0
22/08:00am 12.0 8.1 5.5 64 3.0 NW 15 19 8 10 1020.1 1020.1 0.0
22/07:30am 10.7 6.1 5.5 70 2.4 NNW 19 28 10 15 1020.1 1020.1 0.0
22/07:00am 10.7 5.9 5.5 70 2.4 NNW 20 30 11 16 1020.4 1020.4 0.0
22/06:30am 9.7 5.0 5.0 72 2.1 NNW 19 26 10 14 1020.8 1020.8 0.0
22/06:00am 9.7 5.3 4.8 71 2.2 NNW 17 22 9 12 1021.0 1021.0 0.0
22/05:30am 9.6 4.8 4.9 72 2.1 NNW 19 28 10 15 1020.9 1020.9 0.0
22/05:00am 9.9 5.9 4.8 70 2.3 NNW 15 26 8 14 1021.4 1021.4 0.0
22/04:30am 10.4 5.4 4.6 67 2.6 N 20 32 11 17 1021.8 1021.8 0.0
22/04:00am 11.1 6.1 4.7 64 2.9 N 20 35 11 19 1022.1 1022.1 0.0
22/03:30am 11.5 5.4 4.6 62 3.1 N 26 39 14 21 1022.7 1022.7 0.0
22/03:20am 11.6 4.7 4.5 61 3.2 N 30 48 16 26 1022.8 1022.8 0.0
22/03:00am 11.6 5.8 4.5 61 3.2 N 24 37 13 20 1023.2 1023.2 0.0
22/02:30am 11.8 6.0 4.5 61 3.3 N 24 37 13 20 1023.7 1023.7 0.0
22/02:00am 11.6 6.4 5.3 65 2.9 N 22 33 12 18 1024.2 1024.2 0.0
22/01:30am 11.5 7.7 5.6 67 2.7 NNW 15 20 8 11 1024.5 1024.5 0.0
22/01:00am 12.0 8.6 5.8 66 2.9 NNW 13 20 7 11 1024.8 1024.8 0.0
22/12:30am 11.2 7.5 6.3 72 2.3 N 15 19 8 10 1025.1 1025.1 0.0
22/12:00am 11.2 7.9 6.3 72 2.3 N 13 17 7 9 1025.4 1025.4 0.0
 
Date/Time
EDT
Tmp

°C
App
Tmp
°C
Dew
Point
°C
Rel
Hum
%
Delta-T

°C
Wind Press
QNH
hPa
Press
MSL
hPa
Rain
since
9 am
mm
Dir
 
Spd
km/h
Gust
km/h
Spd
kts
Gust
kts
21/11:30pm 11.2 8.0 6.7 74 2.1 N 13 17 7 9 1025.8 1025.8 0.0
21/11:00pm 12.4 8.7 6.2 66 2.9 N 15 20 8 11 1026.0 1026.0 0.0
21/10:30pm 10.5 7.7 6.9 78 1.7 N 11 13 6 7 1026.3 1026.3 0.0
21/10:00pm 12.2 11.4 6.7 69 2.6 CALM 0 6 0 3 1026.6 1026.6 0.0
21/09:30pm 13.3 9.3 6.6 64 3.2 NE 17 20 9 11 1027.0 1027.0 0.0
21/09:00pm 14.4 10.0 6.5 59 3.8 NNE 19 24 10 13 1026.9 1026.9 0.0
21/08:30pm 13.7 10.1 6.8 63 3.3 NE 15 22 8 12 1026.8 1026.8 0.0
21/08:00pm 14.8 10.3 6.0 55 4.2 NE 19 24 10 13 1026.9 1026.9 0.0
21/07:30pm 15.6 11.6 6.8 56 4.3 NE 17 26 9 14 1026.7 1026.7 0.0
21/07:00pm 16.6 11.7 6.8 52 4.8 NE 22 28 12 15 1026.6 1026.6 0.0
21/06:30pm 17.8 12.7 6.1 46 5.7 NE 22 30 12 16 1026.7 1026.7 0.0
21/06:00pm 18.5 13.1 6.3 45 6.0 NE 24 30 13 16 1026.8 1026.8 0.0
21/05:30pm 19.6 14.7 6.8 43 6.5 NE 22 30 12 16 1027.0 1027.0 0.0
21/05:00pm 19.7 14.6 5.9 40 6.8 NE 22 28 12 15 1027.0 1027.0 0.0
21/04:30pm 19.7 16.0 4.2 36 7.4 SSE 13 19 7 10 1027.5 1027.5 0.0
21/04:00pm 19.3 14.7 3.5 35 7.4 SE 17 22 9 12 1028.1 1028.1 0.0
21/03:30pm 19.0 14.4 3.9 36 7.2 SSE 17 20 9 11 1028.5 1028.6 0.0
21/03:00pm 18.4 14.9 3.3 36 7.0 SE 11 17 6 9 1029.0 1029.1 0.0
21/02:30pm 19.5 15.4 2.2 31 8.0 NNE 13 22 7 12 1029.8 1029.9 0.0
21/02:00pm 18.8 14.8 3.0 35 7.3 NE 13 20 7 11 1030.3 1030.4 0.0
21/01:30pm 17.8 14.2 2.9 37 6.9 NE 11 17 6 9 1030.8 1030.9 0.0
21/01:00pm 16.1 13.1 3.9 44 5.6 SSE 9 15 5 8 1031.3 1031.4 0.0
21/12:30pm 17.3 13.4 3.4 39 6.4 ENE 13 19 7 10 1031.6 1031.7 0.0
21/12:00pm 15.8 12.6 2.9 42 5.8 NE 9 17 5 9 1032.1 1032.2 0.0
21/11:30am 15.2 11.7 3.5 45 5.3 NE 11 19 6 10 1032.4 1032.5 0.0
21/11:00am 14.6 11.6 4.1 49 4.8 NNE 9 17 5 9 1033.0 1033.1 0.0
21/10:30am 13.5 9.5 3.1 49 4.6 WNW 13 19 7 10 1033.4 1033.5 0.0
21/10:00am 12.9 8.6 3.1 51 4.3 NW 15 22 8 12 1033.6 1033.7 0.0
21/09:30am 12.5 8.5 2.9 52 4.2 NNW 13 19 7 10 1033.9 1034.0 0.0
21/09:00am 10.3 5.5 2.5 58 3.3 NNW 17 20 9 11 1034.1 1034.2 0.0
21/08:30am 9.5 5.2 3.2 65 2.7 NW 15 19 8 10 1034.2 1034.3 0.0
21/08:00am 7.4 2.3 2.8 72 1.9 NW 19 20 10 11 1034.2 1034.3 0.0

Latest Capital City Observations: Canberra | Sydney | Melbourne | Brisbane | Adelaide | Perth | Hobart | Darwin

Other Formats:

Comma delimited format used in spreadsheet applications
http://www.bom.gov.au/fwo/IDT60901/IDT60901.94975.axf

JavaScript Object Notation format (JSON) in row-major order
http://www.bom.gov.au/fwo/IDT60901/IDT60901.94975.json